^^
Station Historical Data
Daily Summary for April 3, 2017 Units:  English    Metric   Both
« Previous Day
Next Day »
Daily Weekly Monthly Yearly Custom
  High: Low: Average:
Temperature: 63.2 °F 40.9 °F 51.8 °F
Dew Point: 38.9 °F 31.2 °F 34.8 °F
Humidity: 71% 37% 53%
Wind Speed: 7.0mph 0.0mph 1.4mph
Wind Gust: 16.0mph - -
Wind- - South
Pressure: 30.15 in 29.90 in -
Precipitation: 0.00 in    
Historical Graphs
 
 
Tabular Data for April 3, 2017
Time Temperature Dew Point Pressure Wind Wind Speed Wind Gust Humidity Rainfall Rate (Hourly) Conditions
00:00 50.2 °F 32.2 °F 30.12 in Calm   2.0 mph 50% 0.00 in CLR
00:15 49.5 °F 32.1 °F 30.11 in Calm   1.0 mph 51% 0.00 in CLR
00:30 49.3 °F 31.9 °F 30.11 in Calm   2.0 mph 51% 0.00 in CLR
00:45 49.5 °F 31.6 °F 30.10 in Calm   2.0 mph 50% 0.00 in CLR
01:00 49.1 °F 31.7 °F 30.11 in Calm   2.0 mph 51% 0.00 in CLR
02:15 45.8 °F 32.3 °F 30.10 in Calm     59% 0.00 in CLR
02:30 44.2 °F 32.0 °F 30.11 in Calm     62% 0.00 in CLR
02:45 44.2 °F 32.0 °F 30.11 in Calm     62% 0.00 in CLR
03:00 43.8 °F 32.0 °F 30.11 in Calm     63% 0.00 in CLR
03:15 42.9 °F 31.9 °F 30.11 in Calm     65% 0.00 in CLR
03:30 41.9 °F 31.7 °F 30.10 in Calm     67% 0.00 in CLR
03:45 43.6 °F 31.8 °F 30.10 in Calm     63% 0.00 in CLR
04:00 43.5 °F 31.7 °F 30.09 in Calm   1.0 mph 63% 0.00 in CLR
04:15 44.6 °F 31.6 °F 30.09 in Calm     60% 0.00 in FEW
04:30 43.0 °F 31.7 °F 30.10 in Calm     64% 0.00 in FEW
04:45 43.2 °F 31.4 °F 30.09 in Calm     63% 0.00 in FEW
05:00 43.3 °F 31.5 °F 30.10 in Calm     63% 0.00 in FEW
05:15 43.7 °F 31.9 °F 30.10 in Calm     63% 0.00 in FEW
05:30 42.3 °F 31.4 °F 30.10 in Calm     65% 0.00 in FEW
05:45 41.3 °F 31.2 °F 30.11 in Calm     67% 0.00 in FEW
06:00 42.8 °F 31.8 °F 30.11 in Calm     65% 0.00 in FEW
06:15 41.9 °F 31.7 °F 30.11 in Calm     67% 0.00 in CLR
06:30 40.9 °F 32.2 °F 30.12 in Calm     71% 0.00 in CLR
06:45 41.0 °F 32.0 °F 30.13 in Calm     70% 0.00 in CLR
07:00 41.3 °F 32.2 °F 30.13 in Calm   1.0 mph 70% 0.00 in CLR
07:15 41.5 °F 32.4 °F 30.14 in Calm     70% 0.00 in CLR
07:30 42.0 °F 32.5 °F 30.15 in Calm     69% 0.00 in CLR
07:45 43.1 °F 32.5 °F 30.15 in Calm     66% 0.00 in CLR
08:00 43.6 °F 33.0 °F 30.15 in Calm     66% 0.00 in CLR
08:15 44.8 °F 33.3 °F 30.15 in Calm     64% 0.00 in CLR
08:30 46.6 °F 33.8 °F 30.14 in Calm     61% 0.00 in CLR
08:45 49.3 °F 34.7 °F 30.15 in Calm   1.0 mph 57% 0.00 in CLR
09:00 50.8 °F 37.4 °F 30.14 in Calm   1.0 mph 60% 0.00 in CLR
09:15 53.8 °F 37.1 °F 30.14 in Calm   1.0 mph 53% 0.00 in CLR
09:30 54.1 °F 35.3 °F 30.14 in South 1.0 mph 2.0 mph 49% 0.00 in CLR
09:45 53.4 °F 34.7 °F 30.13 in SSW 1.0 mph 4.0 mph 49% 0.00 in CLR
10:00 53.9 °F 34.6 °F 30.13 in Calm   2.0 mph 48% 0.00 in CLR
10:15 53.4 °F 35.7 °F 30.13 in WSW 2.0 mph 4.0 mph 51% 0.00 in SCT
10:30 53.7 °F 35.5 °F 30.14 in SSW 2.0 mph 4.0 mph 50% 0.00 in SCT
10:45 55.3 °F 36.5 °F 30.13 in SW 1.0 mph 6.0 mph 49% 0.00 in SCT
11:00 54.9 °F 35.6 °F 30.13 in SW 2.0 mph 7.0 mph 48% 0.00 in SCT
11:15 56.0 °F 36.6 °F 30.12 in SW 1.0 mph 4.0 mph 48% 0.00 in SCT
11:30 56.8 °F 36.2 °F 30.12 in SSW 1.0 mph 8.0 mph 46% 0.00 in SCT
11:45 57.2 °F 37.1 °F 30.11 in SW 3.0 mph 5.0 mph 47% 0.00 in SCT
12:00 58.1 °F 36.9 °F 30.10 in SW 2.0 mph 7.0 mph 45% 0.00 in SCT
12:15 58.7 °F 36.8 °F 30.09 in SW 3.0 mph 9.0 mph 44% 0.00 in BKN
12:30 60.5 °F 36.6 °F 30.09 in South 6.0 mph 10.0 mph 41% 0.00 in BKN
12:45 60.7 °F 36.9 °F 30.09 in SW 5.0 mph 12.0 mph 41% 0.00 in BKN
13:00 61.2 °F 36.0 °F 30.07 in SW 1.0 mph 9.0 mph 39% 0.00 in BKN
13:15 62.6 °F 36.6 °F 30.07 in South 3.0 mph 12.0 mph 38% 0.00 in FEW
13:30 62.9 °F 37.5 °F 30.07 in SW 2.0 mph 12.0 mph 39% 0.00 in FEW
13:45 62.8 °F 36.8 °F 30.06 in SSW 7.0 mph 16.0 mph 38% 0.00 in FEW
14:00 63.2 °F 36.5 °F 30.06 in South 5.0 mph 13.0 mph 37% 0.00 in FEW
14:15 62.6 °F 35.9 °F 30.05 in South 5.0 mph 16.0 mph 37% 0.00 in CLR
14:30 62.7 °F 36.7 °F 30.05 in SW 6.0 mph 13.0 mph 38% 0.00 in CLR
14:45 62.5 °F 35.9 °F 30.04 in SSW 5.0 mph 14.0 mph 37% 0.00 in CLR
15:00 62.4 °F 36.5 °F 30.03 in SSW 2.0 mph 12.0 mph 38% 0.00 in CLR
15:15 62.9 °F 36.2 °F 30.02 in SW 5.0 mph 10.0 mph 37% 0.00 in FEW
15:30 61.1 °F 35.3 °F 30.02 in SSW 1.0 mph 12.0 mph 38% 0.00 in FEW
15:45 59.8 °F 35.4 °F 30.02 in South 3.0 mph 12.0 mph 40% 0.00 in FEW
16:00 59.4 °F 35.1 °F 30.01 in South 6.0 mph 13.0 mph 40% 0.00 in FEW
16:15 58.7 °F 35.7 °F 30.01 in SSW 2.0 mph 12.0 mph 42% 0.00 in FEW
16:30 59.0 °F 35.3 °F 30.00 in South 6.0 mph 10.0 mph 41% 0.00 in FEW
16:45 59.9 °F 35.5 °F 29.99 in South 2.0 mph 10.0 mph 40% 0.00 in FEW
17:00 59.5 °F 35.2 °F 29.99 in SSW 5.0 mph 12.0 mph 40% 0.00 in FEW
17:15 59.6 °F 35.2 °F 29.99 in South 2.0 mph 12.0 mph 40% 0.00 in CLR
17:30 57.9 °F 34.9 °F 29.99 in SW 2.0 mph 10.0 mph 42% 0.00 in CLR
17:45 57.5 °F 35.2 °F 29.99 in SW 1.0 mph 10.0 mph 43% 0.00 in CLR
18:00 57.1 °F 35.4 °F 29.99 in SSW 2.0 mph 10.0 mph 44% 0.00 in CLR
18:15 56.2 °F 36.2 °F 29.99 in South 1.0 mph 8.0 mph 47% 0.00 in CLR
18:30 55.2 °F 37.4 °F 29.99 in South 1.0 mph 6.0 mph 51% 0.00 in CLR
18:45 54.5 °F 38.6 °F 29.99 in SE 1.0 mph 7.0 mph 55% 0.00 in CLR
19:00 53.5 °F 38.6 °F 29.98 in ESE 1.0 mph 9.0 mph 57% 0.00 in CLR
19:15 52.9 °F 38.9 °F 29.98 in NE 1.0 mph 8.0 mph 59% 0.00 in FEW
19:30 52.4 °F 38.9 °F 29.97 in ENE 1.0 mph 10.0 mph 60% 0.00 in FEW
19:45 51.8 °F 38.8 °F 29.97 in NNE 2.0 mph 7.0 mph 61% 0.00 in FEW
20:00 51.4 °F 38.4 °F 29.97 in Calm   7.0 mph 61% 0.00 in FEW
20:15 51.0 °F 38.0 °F 29.96 in South 2.0 mph 6.0 mph 61% 0.00 in BKN
20:30 50.6 °F 37.6 °F 29.97 in SSE 3.0 mph 6.0 mph 61% 0.00 in BKN
20:45 50.5 °F 37.5 °F 29.97 in SW 2.0 mph 6.0 mph 61% 0.00 in BKN
21:15 50.4 °F 37.0 °F 29.96 in Calm   4.0 mph 60% 0.00 in BKN
21:30 50.4 °F 36.6 °F 29.96 in Calm   5.0 mph 59% 0.00 in BKN
21:45 50.4 °F 35.7 °F 29.96 in South 1.0 mph 7.0 mph 57% 0.00 in BKN
22:00 50.3 °F 34.7 °F 29.96 in South 2.0 mph 6.0 mph 55% 0.00 in BKN
22:15 50.3 °F 34.7 °F 29.96 in South 1.0 mph 4.0 mph 55% 0.00 in BKN
22:30 50.4 °F 34.4 °F 29.96 in SSE 2.0 mph 6.0 mph 54% 0.00 in BKN
22:45 50.2 °F 34.7 °F 29.95 in ESE 1.0 mph 4.0 mph 55% 0.00 in BKN
23:00 49.9 °F 34.4 °F 29.93 in North 1.0 mph 6.0 mph 55% 0.00 in BKN
23:15 49.6 °F 35.0 °F 29.92 in NE 1.0 mph 5.0 mph 57% 0.00 in OVC
23:30 49.5 °F 35.8 °F 29.91 in Calm   5.0 mph 59% 0.00 in OVC
23:45 48.7 °F 37.1 °F 29.90 in Calm   6.0 mph 64% 0.00 in OVC
TarryTown NY Weather
Compliments of Weather Underground - 1.5 mb